Forside
METAR-TAF:

METAR-TAF

Lufthavne :

Omsk, Rusland

Breddekreds: 54-58N, længdekreds: 073-18E, højde: 122 m

Aktuelle vejr

Denne rapport blev lavet for 43 minutter siden, kl. 13:00 UTC
Vind 6 kt fra syd
Temperatur 7°C
Fugtighed 49%
Tryk 1020 hPa
Sigt 10 km eller mere
ingen skyer under 1500m og ingen cumulonimbus

METAR: UNOO 311300Z 18003MPS CAVOK 07/M03 Q1020 R25/CLRD60 NOSIG RMK QFE757

Tid: 19:43 (13:43 UTC)

Vejrudsigter

Denne rapport blev lavet for 2 timer og 52 minutter siden, kl. 10:51 UTC
Foreløbig gælder fra 31 på 12 UTC til 01 på 12 UTC
Vind 6 kt fra syd med vindstød på up til 17 kt
Sigt: 6000 m

TAF: UNOO 311051Z 3112/0112 18003G09MPS 6000 NSC

Vejrobservationer og prognoser fra mere end 4000 lufthavne (METAR og TAF).

De gule og røde prikker repræsenterer de meteorologiske stationer.

Flyt musen over at se navnet på stationen.

Så klik over at se vejr observationer og prognoser.

At skifte det kort: Klik på de grønne knapper med et sort kors for at zoome ind; på den grønne knap med en bindestreg for at zoome ud; eller på de grønne pile for tilstødende kort.


METAR-TAF: